Time;durP1;ratioP1;P1;durP2;ratioP2;P2;SDS_P1;SDS_P2;PMS_P1;PMS_P2;Temp;Humidity;BMP_temperature;BMP_pressure;BME280_temperature;BME280_humidity;BME280_pressure;Samples;Min_cycle;Max_cycle;Signal;HPM_P1;HPM_P2
2022/03/28 00:00:20;;;;;;;19.73;11.50;;;;;;;;;;5032984;28;20818;-51
2022/03/28 00:02:46;;;;;;;16.23;10.90;;;;;;;;;;5033146;28;20469;-50
2022/03/28 00:05:16;;;;;;;17.83;12.00;;;;;;;;;;5033220;28;20481;-47
2022/03/28 00:07:42;;;;;;;18.27;11.57;;;;;;;;;;5033387;28;20424;-48
2022/03/28 00:10:09;;;;;;;19.87;12.50;;;;;;;;;;5033305;28;20414;-47
2022/03/28 00:12:37;;;;;;;19.10;12.07;;;;;;;;;;5033145;28;20442;-47
2022/03/28 00:15:03;;;;;;;16.03;10.97;;;;;;;;;;5032970;28;20419;-47
2022/03/28 00:17:31;;;;;;;20.47;12.23;;;;;;;;;;5033135;28;20414;-48
2022/03/28 00:19:57;;;;;;;20.20;11.23;;;;;;;;;;5032732;28;20480;-47
2022/03/28 00:22:23;;;;;;;17.73;12.20;;;;;;;;;;5032785;28;20521;-48
2022/03/28 00:24:49;;;;;;;18.80;11.60;;;;;;;;;;5032786;28;20420;-48
2022/03/28 00:27:15;;;;;;;22.00;11.70;;;;;;;;;;5033019;28;20414;-47
2022/03/28 00:29:41;;;;;;;19.53;11.20;;;;;;;;;;5032247;28;20422;-48
2022/03/28 00:32:07;;;;;;;19.93;11.57;;;;;;;;;;5032910;28;20495;-48
2022/03/28 00:34:33;;;;;;;17.70;12.40;;;;;;;;;;5032321;28;20909;-47
2022/03/28 00:36:59;;;;;;;23.77;12.27;;;;;;;;;;5032982;28;20497;-47
2022/03/28 00:39:25;;;;;;;24.27;13.10;;;;;;;;;;5032249;28;20549;-49
2022/03/28 00:41:52;;;;;;;20.20;12.70;;;;;;;;;;5032523;28;20419;-48
2022/03/28 00:44:18;;;;;;;20.40;12.37;;;;;;;;;;5032474;28;20415;-51
2022/03/28 00:46:45;;;;;;;18.03;12.47;;;;;;;;;;5032257;28;20459;-48
2022/03/28 00:49:11;;;;;;;19.70;12.17;;;;;;;;;;5032201;28;20521;-50
2022/03/28 00:51:37;;;;;;;16.30;11.93;;;;;;;;;;5032375;28;20418;-51
2022/03/28 00:54:05;;;;;;;23.57;12.57;;;;;;;;;;5032364;28;20419;-51
2022/03/28 00:56:31;;;;;;;24.97;14.03;;;;;;;;;;5032326;28;20430;-51
2022/03/28 00:58:58;;;;;;;24.33;12.37;;;;;;;;;;5032246;28;20418;-52
2022/03/28 01:01:24;;;;;;;20.30;11.60;;;;;;;;;;5031662;28;20463;-46
2022/03/28 01:03:50;;;;;;;21.30;13.43;;;;;;;;;;5031424;28;20449;-51
2022/03/28 01:06:17;;;;;;;19.43;12.60;;;;;;;;;;5031803;28;20811;-47
2022/03/28 01:08:43;;;;;;;21.63;13.50;;;;;;;;;;5031068;28;20418;-47
2022/03/28 01:11:09;;;;;;;18.10;11.33;;;;;;;;;;5032294;28;20492;-47
2022/03/28 01:13:36;;;;;;;23.13;13.53;;;;;;;;;;5031834;28;20446;-47
2022/03/28 01:16:03;;;;;;;19.50;12.63;;;;;;;;;;5031462;28;20418;-48
2022/03/28 01:18:29;;;;;;;18.43;12.73;;;;;;;;;;5031226;28;21028;-48
2022/03/28 01:20:59;;;;;;;21.93;12.30;;;;;;;;;;5030470;28;20468;-47
2022/03/28 01:23:25;;;;;;;21.73;12.30;;;;;;;;;;5020406;28;20433;-47
2022/03/28 01:25:51;;;;;;;19.00;11.63;;;;;;;;;;5032045;28;20402;-47
2022/03/28 01:28:18;;;;;;;21.50;12.27;;;;;;;;;;5031574;28;20424;-46
2022/03/28 01:30:44;;;;;;;17.93;11.93;;;;;;;;;;5030075;28;20439;-47
2022/03/28 01:33:10;;;;;;;20.57;12.47;;;;;;;;;;5031583;28;20446;-47
2022/03/28 01:35:37;;;;;;;24.10;12.57;;;;;;;;;;5031565;28;20432;-47
2022/03/28 01:38:06;;;;;;;18.87;12.73;;;;;;;;;;5031450;28;20982;-47
2022/03/28 01:40:34;;;;;;;24.87;12.60;;;;;;;;;;5031183;28;20449;-47
2022/03/28 01:43:00;;;;;;;25.60;13.53;;;;;;;;;;5031540;28;20441;-47
2022/03/28 01:45:27;;;;;;;21.50;12.80;;;;;;;;;;5031387;28;20509;-45
2022/03/28 01:47:53;;;;;;;23.90;12.83;;;;;;;;;;5031154;28;20853;-47
2022/03/28 01:50:19;;;;;;;25.30;13.20;;;;;;;;;;5031352;28;20445;-47
2022/03/28 01:52:46;;;;;;;20.87;13.50;;;;;;;;;;5030790;28;20467;-47
2022/03/28 01:55:12;;;;;;;22.50;12.90;;;;;;;;;;5031354;28;20430;-47
2022/03/28 01:57:39;;;;;;;27.70;12.77;;;;;;;;;;5031623;28;20442;-49
2022/03/28 02:00:10;;;;;;;24.10;14.13;;;;;;;;;;5029889;28;20464;-46
2022/03/28 02:02:37;;;;;;;23.50;13.13;;;;;;;;;;5031144;28;20450;-46
2022/03/28 02:05:03;;;;;;;22.23;12.17;;;;;;;;;;5031595;28;20485;-47
2022/03/28 02:07:29;;;;;;;20.57;12.70;;;;;;;;;;5031318;28;20418;-47
2022/03/28 02:09:55;;;;;;;22.30;12.83;;;;;;;;;;5031263;28;20424;-46
2022/03/28 02:12:21;;;;;;;23.20;13.53;;;;;;;;;;5031132;28;20925;-46
2022/03/28 02:14:47;;;;;;;21.87;13.47;;;;;;;;;;5030423;28;20419;-47
2022/03/28 02:17:13;;;;;;;23.43;13.67;;;;;;;;;;5031240;28;20418;-47
2022/03/28 02:19:39;;;;;;;20.77;12.77;;;;;;;;;;5030940;28;20462;-47
2022/03/28 02:22:05;;;;;;;21.87;12.97;;;;;;;;;;5029852;28;20443;-46
2022/03/28 02:24:31;;;;;;;23.37;13.23;;;;;;;;;;5031243;28;20411;-46
2022/03/28 02:26:57;;;;;;;25.37;13.30;;;;;;;;;;5030973;28;20418;-47
2022/03/28 02:29:23;;;;;;;29.43;13.73;;;;;;;;;;5029513;28;20446;-48
2022/03/28 02:31:49;;;;;;;22.27;13.40;;;;;;;;;;5031672;28;20459;-47
2022/03/28 02:34:15;;;;;;;25.00;13.43;;;;;;;;;;5035116;28;20504;-49
2022/03/28 02:36:41;;;;;;;20.17;11.70;;;;;;;;;;5035067;28;20407;-49
2022/03/28 02:39:07;;;;;;;21.70;13.47;;;;;;;;;;5035097;28;20470;-48
2022/03/28 02:41:33;;;;;;;21.17;13.20;;;;;;;;;;5034634;28;20424;-47
2022/03/28 02:43:59;;;;;;;20.23;12.40;;;;;;;;;;5033900;28;20427;-47
2022/03/28 02:46:25;;;;;;;23.60;11.97;;;;;;;;;;5034740;28;20414;-46
2022/03/28 02:48:52;;;;;;;23.77;13.00;;;;;;;;;;5034729;28;20430;-46
2022/03/28 02:51:17;;;;;;;23.47;12.37;;;;;;;;;;5034763;28;20419;-47
2022/03/28 02:53:43;;;;;;;20.87;12.03;;;;;;;;;;5034325;28;20442;-47
2022/03/28 02:56:09;;;;;;;22.40;12.57;;;;;;;;;;5034405;28;20524;-47
2022/03/28 02:58:35;;;;;;;27.90;14.87;;;;;;;;;;5034561;28;20492;-47
2022/03/28 03:01:01;;;;;;;25.97;12.73;;;;;;;;;;5034341;28;20506;-47
2022/03/28 03:03:27;;;;;;;22.73;13.50;;;;;;;;;;5034462;28;20435;-48
2022/03/28 03:05:53;;;;;;;28.13;13.67;;;;;;;;;;5034477;28;20450;-48
2022/03/28 03:08:19;;;;;;;23.47;13.43;;;;;;;;;;5034135;28;20848;-47
2022/03/28 03:10:45;;;;;;;22.03;13.00;;;;;;;;;;5034218;28;20425;-47
2022/03/28 03:13:11;;;;;;;22.30;13.73;;;;;;;;;;5034475;28;20427;-47
2022/03/28 03:15:38;;;;;;;18.90;13.73;;;;;;;;;;5034534;28;20469;-47
2022/03/28 03:18:05;;;;;;;20.25;13.15;;;;;;;;;;5034105;28;20420;-49
2022/03/28 03:20:31;;;;;;;27.77;13.33;;;;;;;;;;5033900;28;20215;-47
2022/03/28 03:22:57;;;;;;;21.53;13.27;;;;;;;;;;5033717;28;20948;-47
2022/03/28 03:25:23;;;;;;;24.47;14.40;;;;;;;;;;5034001;28;20423;-48
2022/03/28 03:27:51;;;;;;;25.03;14.83;;;;;;;;;;5034196;28;20980;-48
2022/03/28 03:30:18;;;;;;;27.83;13.37;;;;;;;;;;5033593;28;20919;-47
2022/03/28 03:32:44;;;;;;;27.08;13.63;;;;;;;;;;5034061;28;20444;-47
2022/03/28 03:35:10;;;;;;;29.63;13.70;;;;;;;;;;5033975;28;20176;-47
2022/03/28 03:37:36;;;;;;;22.77;13.03;;;;;;;;;;5034171;28;20417;-46
2022/03/28 03:40:03;;;;;;;22.37;13.70;;;;;;;;;;5033264;28;20459;-46
2022/03/28 03:42:29;;;;;;;23.37;13.33;;;;;;;;;;5033491;28;20444;-47
2022/03/28 03:44:55;;;;;;;27.07;14.60;;;;;;;;;;5033652;28;20468;-47
2022/03/28 03:47:21;;;;;;;24.40;13.40;;;;;;;;;;5033237;28;20415;-47
2022/03/28 03:49:47;;;;;;;24.87;14.80;;;;;;;;;;5033282;28;20984;-47
2022/03/28 03:52:13;;;;;;;30.30;13.87;;;;;;;;;;5032544;28;20434;-46
2022/03/28 03:54:39;;;;;;;25.83;14.27;;;;;;;;;;5033321;28;20489;-47
2022/03/28 03:57:05;;;;;;;22.23;13.07;;;;;;;;;;5033638;28;20398;-48
2022/03/28 03:59:31;;;;;;;24.07;14.10;;;;;;;;;;5033364;28;20861;-48
2022/03/28 04:01:57;;;;;;;20.13;12.70;;;;;;;;;;5033507;28;20434;-48
2022/03/28 04:04:23;;;;;;;22.63;12.40;;;;;;;;;;5033661;28;20394;-49
2022/03/28 04:06:49;;;;;;;23.87;13.43;;;;;;;;;;5032475;28;20506;-48
2022/03/28 04:09:15;;;;;;;21.63;13.47;;;;;;;;;;5033383;28;20485;-47
2022/03/28 04:11:41;;;;;;;24.13;14.50;;;;;;;;;;5032891;28;20426;-47
2022/03/28 04:14:07;;;;;;;26.70;14.13;;;;;;;;;;5033334;28;20426;-46
2022/03/28 04:16:34;;;;;;;25.88;13.50;;;;;;;;;;5033286;28;20418;-46
2022/03/28 04:19:00;;;;;;;27.95;13.15;;;;;;;;;;5033168;28;20590;-47
2022/03/28 04:21:26;;;;;;;26.23;14.37;;;;;;;;;;5032093;28;20198;-47
2022/03/28 04:23:52;;;;;;;30.55;13.25;;;;;;;;;;5032742;28;20433;-47
2022/03/28 04:26:18;;;;;;;30.33;15.40;;;;;;;;;;5032876;28;20171;-48
2022/03/28 04:28:43;;;;;;;22.93;13.13;;;;;;;;;;5033358;28;20449;-47
2022/03/28 04:31:10;;;;;;;23.73;14.20;;;;;;;;;;5032559;28;20446;-47
2022/03/28 04:33:36;;;;;;;23.10;14.10;;;;;;;;;;5032795;28;20537;-47
2022/03/28 04:36:02;;;;;;;25.92;13.10;;;;;;;;;;5032391;28;20258;-46
2022/03/28 04:38:29;;;;;;;32.85;13.82;;;;;;;;;;5032784;28;20226;-47
2022/03/28 04:40:55;;;;;;;19.70;12.30;;;;;;;;;;5032129;28;20679;-47
2022/03/28 04:43:21;;;;;;;21.07;14.00;;;;;;;;;;5032025;28;20518;-47
2022/03/28 04:45:47;;;;;;;26.03;12.97;;;;;;;;;;5031240;28;20422;-46
2022/03/28 04:48:13;;;;;;;24.70;13.77;;;;;;;;;;5031835;28;20432;-47
2022/03/28 04:50:39;;;;;;;21.40;12.90;;;;;;;;;;5032037;28;20618;-47
2022/03/28 04:53:05;;;;;;;25.85;12.80;;;;;;;;;;5032200;28;20436;-47
2022/03/28 04:55:31;;;;;;;25.10;13.73;;;;;;;;;;5031667;28;20180;-47
2022/03/28 04:57:57;;;;;;;28.10;15.02;;;;;;;;;;5032430;28;20179;-47
2022/03/28 05:00:23;;;;;;;23.60;14.40;;;;;;;;;;5032000;28;20246;-47
2022/03/28 05:02:49;;;;;;;24.30;13.20;;;;;;;;;;5032440;28;20928;-47
2022/03/28 05:05:18;;;;;;;24.00;12.97;;;;;;;;;;5032125;28;20497;-48
2022/03/28 05:07:44;;;;;;;23.38;12.82;;;;;;;;;;5032245;28;20923;-49
2022/03/28 05:10:10;;;;;;;41.43;15.17;;;;;;;;;;5031164;28;20202;-48
2022/03/28 05:12:36;;;;;;;36.30;14.43;;;;;;;;;;5032006;28;20430;-49
2022/03/28 05:15:02;;;;;;;31.40;14.73;;;;;;;;;;5032099;28;20429;-46
2022/03/28 05:17:29;;;;;;;23.90;14.02;;;;;;;;;;5032150;28;20451;-49
2022/03/28 05:19:56;;;;;;;25.47;13.90;;;;;;;;;;5031851;28;20603;-47
2022/03/28 05:22:25;;;;;;;27.17;13.95;;;;;;;;;;5031703;28;20445;-47
2022/03/28 05:24:51;;;;;;;26.77;14.07;;;;;;;;;;5031912;28;20223;-49
2022/03/28 05:27:17;;;;;;;31.00;15.70;;;;;;;;;;5032021;28;20537;-46
2022/03/28 05:29:44;;;;;;;29.13;14.30;;;;;;;;;;5031862;28;20717;-48
2022/03/28 05:32:10;;;;;;;31.98;13.07;;;;;;;;;;5030979;28;20218;-47
2022/03/28 05:34:36;;;;;;;24.45;13.60;;;;;;;;;;5031613;28;20183;-48
2022/03/28 05:37:05;;;;;;;30.90;16.67;;;;;;;;;;5031704;28;20605;-46
2022/03/28 05:39:32;;;;;;;38.80;14.90;;;;;;;;;;5031292;28;20644;-46
2022/03/28 05:41:58;;;;;;;28.40;14.57;;;;;;;;;;5030767;28;20199;-47
2022/03/28 05:44:24;;;;;;;34.13;14.73;;;;;;;;;;5031210;28;20414;-49
2022/03/28 05:46:51;;;;;;;32.83;15.10;;;;;;;;;;5030716;28;20425;-47
2022/03/28 05:49:18;;;;;;;30.20;12.37;;;;;;;;;;5030826;28;20437;-50
2022/03/28 05:51:44;;;;;;;34.47;15.95;;;;;;;;;;5030155;28;20472;-48
2022/03/28 05:54:10;;;;;;;28.53;14.23;;;;;;;;;;5030690;28;20255;-47
2022/03/28 05:56:36;;;;;;;32.63;16.73;;;;;;;;;;5030775;28;20910;-47
2022/03/28 05:59:02;;;;;;;27.33;14.38;;;;;;;;;;5031160;28;20600;-47
2022/03/28 06:01:29;;;;;;;32.00;16.07;;;;;;;;;;5031105;28;20207;-47
2022/03/28 06:03:55;;;;;;;29.03;15.40;;;;;;;;;;5031421;28;20906;-47
2022/03/28 06:06:20;;;;;;;30.93;15.80;;;;;;;;;;5032125;28;20427;-47
2022/03/28 06:08:46;;;;;;;28.97;14.27;;;;;;;;;;5034495;28;20426;-47
2022/03/28 06:11:12;;;;;;;30.43;15.87;;;;;;;;;;5035211;28;20509;-47
2022/03/28 06:13:38;;;;;;;36.83;14.90;;;;;;;;;;5035229;28;20453;-47
2022/03/28 06:16:05;;;;;;;27.67;14.70;;;;;;;;;;5035260;28;20265;-47
2022/03/28 06:18:31;;;;;;;28.93;15.13;;;;;;;;;;5035671;28;20414;-47
2022/03/28 06:20:57;;;;;;;35.90;14.70;;;;;;;;;;5034817;28;20973;-47
2022/03/28 06:23:23;;;;;;;31.50;15.03;;;;;;;;;;5035524;28;20477;-47
2022/03/28 06:25:49;;;;;;;31.53;16.33;;;;;;;;;;5034933;28;20417;-47
2022/03/28 06:28:15;;;;;;;29.90;13.73;;;;;;;;;;5034886;28;20423;-49
2022/03/28 06:30:41;;;;;;;27.17;15.40;;;;;;;;;;5034419;28;20419;-48
2022/03/28 06:33:07;;;;;;;32.23;17.50;;;;;;;;;;5034596;28;20467;-47
2022/03/28 06:35:33;;;;;;;29.50;16.30;;;;;;;;;;5034081;28;20454;-49
2022/03/28 06:37:59;;;;;;;23.80;13.70;;;;;;;;;;5033530;28;20418;-47
2022/03/28 06:40:25;;;;;;;31.70;15.07;;;;;;;;;;5034009;28;20454;-49
2022/03/28 06:42:51;;;;;;;27.97;14.47;;;;;;;;;;5033596;28;20444;-47
2022/03/28 06:45:17;;;;;;;26.30;14.17;;;;;;;;;;5033871;28;20415;-47
2022/03/28 06:47:44;;;;;;;23.47;14.97;;;;;;;;;;5024716;28;20501;-47
2022/03/28 06:50:10;;;;;;;26.90;14.17;;;;;;;;;;5033037;28;20506;-48
2022/03/28 06:52:37;;;;;;;29.73;17.20;;;;;;;;;;5033320;28;20438;-49
2022/03/28 06:55:04;;;;;;;31.03;16.90;;;;;;;;;;5033208;28;20441;-47
2022/03/28 06:57:30;;;;;;;22.17;14.07;;;;;;;;;;5033917;28;20421;-47
2022/03/28 06:59:56;;;;;;;26.80;14.80;;;;;;;;;;5032902;28;20595;-48
2022/03/28 07:02:22;;;;;;;26.30;14.33;;;;;;;;;;5033674;28;20520;-48
2022/03/28 07:04:48;;;;;;;22.90;12.37;;;;;;;;;;5033215;28;20422;-48
2022/03/28 07:07:14;;;;;;;19.67;12.50;;;;;;;;;;5033701;28;20833;-48
2022/03/28 07:09:40;;;;;;;21.60;15.30;;;;;;;;;;5034220;28;20410;-48
2022/03/28 07:12:09;;;;;;;27.93;18.40;;;;;;;;;;5033583;28;20413;-48
2022/03/28 07:14:35;;;;;;;23.73;16.63;;;;;;;;;;5034050;28;20431;-48
2022/03/28 07:17:01;;;;;;;25.53;17.10;;;;;;;;;;5033663;28;20396;-48
2022/03/28 07:19:27;;;;;;;24.93;17.17;;;;;;;;;;5033664;28;20409;-49
2022/03/28 07:21:54;;;;;;;25.37;16.23;;;;;;;;;;5033749;28;20430;-49
2022/03/28 07:24:21;;;;;;;23.93;16.27;;;;;;;;;;5034243;28;21024;-49
2022/03/28 07:26:49;;;;;;;23.40;17.00;;;;;;;;;;5032892;28;20433;-49
2022/03/28 07:29:17;;;;;;;17.47;13.17;;;;;;;;;;5033261;28;20409;-50
2022/03/28 07:31:43;;;;;;;27.10;15.67;;;;;;;;;;5032286;28;20525;-48
2022/03/28 07:36:54;;;;;;;21.87;15.63;;;;;;;;;;5030385;28;20471;-50
2022/03/28 07:39:20;;;;;;;20.97;14.90;;;;;;;;;;5033276;28;20505;-49
2022/03/28 07:41:46;;;;;;;21.83;15.90;;;;;;;;;;5033120;28;20441;-50
2022/03/28 07:44:13;;;;;;;20.83;14.90;;;;;;;;;;5032337;28;20476;-50
2022/03/28 07:46:39;;;;;;;22.60;14.80;;;;;;;;;;5033008;28;20410;-47
2022/03/28 07:49:06;;;;;;;32.53;15.67;;;;;;;;;;5033511;28;20973;-47
2022/03/28 07:51:32;;;;;;;25.93;15.17;;;;;;;;;;5032847;28;20437;-48
2022/03/28 07:53:58;;;;;;;21.20;14.03;;;;;;;;;;5028258;28;20421;-48
2022/03/28 07:56:24;;;;;;;20.30;13.87;;;;;;;;;;5032344;28;20914;-48
2022/03/28 07:58:49;;;;;;;20.40;14.60;;;;;;;;;;5033337;28;20905;-48
2022/03/28 08:01:15;;;;;;;18.73;13.70;;;;;;;;;;5033020;28;20463;-49
2022/03/28 08:03:41;;;;;;;22.23;14.90;;;;;;;;;;5029787;28;20453;-48
2022/03/28 08:06:08;;;;;;;16.83;14.97;;;;;;;;;;5033329;28;20410;-50
2022/03/28 08:08:35;;;;;;;20.50;14.10;;;;;;;;;;5033458;28;20409;-48
2022/03/28 08:11:01;;;;;;;20.43;14.77;;;;;;;;;;5033117;28;20451;-48
2022/03/28 08:13:27;;;;;;;21.40;13.70;;;;;;;;;;5033280;28;20441;-48
2022/03/28 08:15:54;;;;;;;22.90;15.13;;;;;;;;;;5033216;28;20422;-49
2022/03/28 08:18:20;;;;;;;23.87;15.90;;;;;;;;;;5033432;28;20953;-48
2022/03/28 08:20:45;;;;;;;22.03;16.50;;;;;;;;;;5032626;28;20458;-48
2022/03/28 08:23:12;;;;;;;23.00;16.40;;;;;;;;;;5033022;28;20422;-48
2022/03/28 08:25:45;;;;;;;20.80;17.40;;;;;;;;;;5033192;28;20419;-51
2022/03/28 08:28:11;;;;;;;22.43;16.10;;;;;;;;;;5033172;28;20417;-50
2022/03/28 08:30:37;;;;;;;21.23;15.90;;;;;;;;;;5031383;28;20910;-48
2022/03/28 08:33:03;;;;;;;22.90;17.07;;;;;;;;;;5032883;28;20428;-49
2022/03/28 08:35:29;;;;;;;18.30;15.27;;;;;;;;;;5032793;28;20421;-49
2022/03/28 08:37:55;;;;;;;18.57;15.90;;;;;;;;;;5032882;28;20402;-49
2022/03/28 08:40:21;;;;;;;20.30;15.67;;;;;;;;;;5032342;28;20481;-49
2022/03/28 08:42:48;;;;;;;22.10;16.50;;;;;;;;;;5032886;28;20524;-49
2022/03/28 08:45:14;;;;;;;18.43;16.20;;;;;;;;;;5032597;28;20545;-49
2022/03/28 08:47:45;;;;;;;20.77;16.60;;;;;;;;;;5032725;28;20399;-49
2022/03/28 08:50:13;;;;;;;21.60;15.23;;;;;;;;;;5032004;28;20445;-49
2022/03/28 08:52:42;;;;;;;17.37;15.27;;;;;;;;;;5032533;28;20426;-49
2022/03/28 08:55:12;;;;;;;18.00;14.77;;;;;;;;;;5032405;28;20449;-48
2022/03/28 08:57:38;;;;;;;20.90;15.37;;;;;;;;;;5032761;28;20414;-48
2022/03/28 09:00:08;;;;;;;20.60;15.40;;;;;;;;;;5031931;28;20508;-48
2022/03/28 09:02:41;;;;;;;20.00;15.50;;;;;;;;;;5032259;28;20418;-48
2022/03/28 09:05:08;;;;;;;19.73;15.50;;;;;;;;;;5031892;28;20410;-49
2022/03/28 09:07:34;;;;;;;21.13;15.53;;;;;;;;;;5032444;28;20433;-49
2022/03/28 09:10:01;;;;;;;20.13;17.03;;;;;;;;;;5031925;28;20426;-49
2022/03/28 09:12:27;;;;;;;18.83;15.10;;;;;;;;;;5032195;28;20432;-48
2022/03/28 09:14:57;;;;;;;21.27;16.00;;;;;;;;;;5031940;28;20509;-49
2022/03/28 09:17:23;;;;;;;20.00;15.67;;;;;;;;;;5032140;28;20783;-48
2022/03/28 09:19:58;;;;;;;21.17;15.67;;;;;;;;;;5031667;28;20450;-49
2022/03/28 09:22:43;;;;;;;17.27;15.47;;;;;;;;;;5032072;28;20956;-49
2022/03/28 09:25:11;;;;;;;20.57;17.70;;;;;;;;;;5031977;28;20414;-50
2022/03/28 09:27:39;;;;;;;21.60;16.97;;;;;;;;;;5032080;28;20501;-49
2022/03/28 09:30:10;;;;;;;19.27;16.20;;;;;;;;;;5031453;28;20418;-49
2022/03/28 09:32:36;;;;;;;23.10;19.13;;;;;;;;;;5030698;28;20437;-49
2022/03/28 09:35:08;;;;;;;25.00;18.73;;;;;;;;;;5031917;28;20410;-48
2022/03/28 09:37:52;;;;;;;22.20;16.70;;;;;;;;;;5031931;28;20643;-49
2022/03/28 09:40:22;;;;;;;25.30;18.00;;;;;;;;;;5030977;28;20511;-49
2022/03/28 09:42:48;;;;;;;24.37;19.30;;;;;;;;;;5031741;28;20418;-49
2022/03/28 09:45:22;;;;;;;23.90;19.90;;;;;;;;;;5031258;28;20793;-49
2022/03/28 09:48:01;;;;;;;26.33;19.23;;;;;;;;;;5031860;28;20399;-48
2022/03/28 09:50:28;;;;;;;24.53;18.87;;;;;;;;;;5031146;28;20441;-49
2022/03/28 09:52:55;;;;;;;28.30;20.93;;;;;;;;;;5031395;28;20466;-50
2022/03/28 09:55:21;;;;;;;23.47;19.60;;;;;;;;;;5031562;28;20854;-49
2022/03/28 09:57:47;;;;;;;25.83;18.87;;;;;;;;;;5031659;28;20398;-50
2022/03/28 10:00:15;;;;;;;24.60;17.47;;;;;;;;;;5031227;28;20527;-48
2022/03/28 10:02:42;;;;;;;27.10;19.03;;;;;;;;;;5031140;28;20434;-48
2022/03/28 10:05:08;;;;;;;25.23;18.70;;;;;;;;;;5031354;28;20838;-50
2022/03/28 10:07:34;;;;;;;21.97;18.23;;;;;;;;;;5031257;28;20402;-48
2022/03/28 10:10:01;;;;;;;28.17;20.57;;;;;;;;;;5031340;28;20826;-49
2022/03/28 10:12:27;;;;;;;27.50;20.30;;;;;;;;;;5031254;28;20514;-49
2022/03/28 10:15:01;;;;;;;27.00;20.50;;;;;;;;;;5046782;28;20398;-49
2022/03/28 10:17:29;;;;;;;22.90;19.13;;;;;;;;;;5031279;28;20440;-49
2022/03/28 10:19:56;;;;;;;26.67;19.70;;;;;;;;;;5030889;28;20457;-48
2022/03/28 10:22:30;;;;;;;26.17;19.93;;;;;;;;;;5031391;28;20938;-49
2022/03/28 10:24:57;;;;;;;23.30;19.27;;;;;;;;;;5031238;28;20549;-49
2022/03/28 10:27:24;;;;;;;28.27;21.37;;;;;;;;;;5030976;28;20425;-51
2022/03/28 10:29:52;;;;;;;23.80;20.20;;;;;;;;;;5031222;28;20975;-50
2022/03/28 10:32:20;;;;;;;26.70;19.03;;;;;;;;;;5025025;28;20424;-50
2022/03/28 10:34:53;;;;;;;27.70;20.57;;;;;;;;;;5011595;28;20436;-49
2022/03/28 10:37:38;;;;;;;25.13;19.33;;;;;;;;;;5015534;28;20496;-49
2022/03/28 10:40:13;;;;;;;27.37;20.67;;;;;;;;;;5021067;28;20454;-49
2022/03/28 10:42:45;;;;;;;25.13;20.40;;;;;;;;;;5031078;28;20444;-49
2022/03/28 10:45:16;;;;;;;24.53;20.90;;;;;;;;;;5031243;28;20407;-51
2022/03/28 10:47:42;;;;;;;29.17;20.70;;;;;;;;;;5031120;28;20540;-49
2022/03/28 10:50:09;;;;;;;28.90;20.63;;;;;;;;;;5030610;28;20480;-49
2022/03/28 10:52:35;;;;;;;25.80;20.27;;;;;;;;;;5031096;28;20495;-49
2022/03/28 10:55:09;;;;;;;24.30;19.70;;;;;;;;;;5034687;28;20787;-49
2022/03/28 10:57:36;;;;;;;25.73;21.10;;;;;;;;;;5015018;28;20465;-49
2022/03/28 11:00:10;;;;;;;24.63;19.77;;;;;;;;;;5014595;28;20564;-49
2022/03/28 11:02:36;;;;;;;26.40;20.20;;;;;;;;;;5014831;28;20935;-49
2022/03/28 11:05:07;;;;;;;28.10;19.70;;;;;;;;;;5016782;28;20412;-49
2022/03/28 11:07:34;;;;;;;26.13;19.13;;;;;;;;;;5034120;28;20413;-49
2022/03/28 11:10:02;;;;;;;24.17;20.20;;;;;;;;;;5033026;28;20406;-51
2022/03/28 11:12:37;;;;;;;26.40;19.57;;;;;;;;;;5034159;28;20942;-49
2022/03/28 11:15:08;;;;;;;24.97;19.50;;;;;;;;;;5034422;28;20408;-50
2022/03/28 11:17:38;;;;;;;31.53;21.50;;;;;;;;;;5033490;28;20403;-49
2022/03/28 11:20:12;;;;;;;30.43;20.60;;;;;;;;;;5034086;28;20820;-49
2022/03/28 11:22:39;;;;;;;26.07;20.63;;;;;;;;;;5034081;28;20419;-49
2022/03/28 11:25:05;;;;;;;26.00;19.40;;;;;;;;;;5034379;28;20414;-49
2022/03/28 11:27:32;;;;;;;26.67;19.77;;;;;;;;;;5034282;28;20754;-49
2022/03/28 11:30:02;;;;;;;23.27;18.60;;;;;;;;;;5033099;28;20541;-51
2022/03/28 11:32:31;;;;;;;24.33;19.47;;;;;;;;;;5033978;28;20433;-51
2022/03/28 11:34:57;;;;;;;21.77;18.37;;;;;;;;;;5034322;28;20838;-49
2022/03/28 11:37:25;;;;;;;25.50;20.13;;;;;;;;;;5034134;28;20434;-49
2022/03/28 11:39:55;;;;;;;23.77;19.00;;;;;;;;;;5033787;28;20451;-49
2022/03/28 11:42:22;;;;;;;24.20;19.20;;;;;;;;;;5033928;28;20513;-51
2022/03/28 11:44:49;;;;;;;23.07;19.10;;;;;;;;;;5034063;28;20399;-49
2022/03/28 11:47:17;;;;;;;23.50;18.30;;;;;;;;;;5033974;28;20504;-50
2022/03/28 11:50:03;;;;;;;31.33;19.47;;;;;;;;;;5033675;28;20419;-49
2022/03/28 11:52:30;;;;;;;28.47;20.33;;;;;;;;;;5033872;28;20422;-51
2022/03/28 11:54:57;;;;;;;22.43;18.70;;;;;;;;;;5033915;28;20438;-49
2022/03/28 12:00:32;;;;;;;30.43;20.70;;;;;;;;;;5033699;28;20460;-49
2022/03/28 12:02:59;;;;;;;23.13;18.70;;;;;;;;;;5033606;28;20525;-50
2022/03/28 12:05:32;;;;;;;29.00;19.50;;;;;;;;;;5033427;28;20406;-50
2022/03/28 12:07:59;;;;;;;22.20;18.53;;;;;;;;;;5033575;28;21182;-49
2022/03/28 12:10:30;;;;;;;23.33;19.17;;;;;;;;;;5033195;28;20405;-50
2022/03/28 12:12:57;;;;;;;25.17;20.00;;;;;;;;;;5033401;28;20414;-50
2022/03/28 12:15:27;;;;;;;24.47;20.27;;;;;;;;;;5032570;28;20868;-51
2022/03/28 12:17:53;;;;;;;29.57;20.80;;;;;;;;;;5033564;28;20489;-50
2022/03/28 12:20:22;;;;;;;25.10;20.57;;;;;;;;;;5033139;28;20450;-49
2022/03/28 12:22:48;;;;;;;30.60;20.43;;;;;;;;;;5033135;28;20433;-48
2022/03/28 12:25:28;;;;;;;28.60;22.20;;;;;;;;;;5031423;28;20414;-48
2022/03/28 12:27:54;;;;;;;27.13;21.07;;;;;;;;;;5033386;28;20428;-51
2022/03/28 12:30:24;;;;;;;27.63;19.60;;;;;;;;;;5033145;28;20480;-49
2022/03/28 12:32:51;;;;;;;30.20;20.67;;;;;;;;;;5031834;28;20444;-50
2022/03/28 12:35:20;;;;;;;26.77;19.60;;;;;;;;;;5032737;28;20767;-49
2022/03/28 12:37:55;;;;;;;26.10;18.83;;;;;;;;;;5032972;28;20421;-50
2022/03/28 12:40:28;;;;;;;30.60;20.17;;;;;;;;;;5032575;28;20502;-48
2022/03/28 12:42:55;;;;;;;26.20;19.80;;;;;;;;;;5032678;28;20423;-50
2022/03/28 12:45:24;;;;;;;22.63;18.40;;;;;;;;;;5032795;28;20402;-50
2022/03/28 12:48:01;;;;;;;23.53;18.07;;;;;;;;;;5032590;28;20399;-49
2022/03/28 12:50:28;;;;;;;18.53;15.33;;;;;;;;;;5032319;28;20433;-48
2022/03/28 12:53:09;;;;;;;20.03;15.07;;;;;;;;;;5032414;28;20429;-48
2022/03/28 12:55:35;;;;;;;21.10;16.60;;;;;;;;;;5032430;28;20537;-49
2022/03/28 12:58:01;;;;;;;20.40;16.23;;;;;;;;;;5032623;28;20406;-49
2022/03/28 13:00:28;;;;;;;22.40;16.00;;;;;;;;;;5032033;28;20457;-48
2022/03/28 13:02:54;;;;;;;19.30;16.07;;;;;;;;;;5031541;28;20445;-48
2022/03/28 13:05:20;;;;;;;24.53;17.93;;;;;;;;;;5032365;28;20769;-48
2022/03/28 13:07:47;;;;;;;23.27;17.50;;;;;;;;;;5032377;28;20464;-48
2022/03/28 13:10:20;;;;;;;24.30;17.80;;;;;;;;;;5032076;28;20394;-52
2022/03/28 13:12:46;;;;;;;25.53;17.77;;;;;;;;;;5031999;28;20433;-49
2022/03/28 13:15:16;;;;;;;22.63;18.60;;;;;;;;;;5032055;28;20442;-49
2022/03/28 13:17:44;;;;;;;29.27;20.20;;;;;;;;;;5032131;28;20414;-49
2022/03/28 13:20:17;;;;;;;25.97;18.90;;;;;;;;;;5031644;28;20486;-49
2022/03/28 13:22:46;;;;;;;25.00;18.83;;;;;;;;;;5031936;28;20934;-49
2022/03/28 13:25:12;;;;;;;23.87;18.73;;;;;;;;;;5032014;28;20747;-49
2022/03/28 13:30:24;;;;;;;28.83;19.07;;;;;;;;;;5032129;28;20421;-51
2022/03/28 13:32:50;;;;;;;25.20;19.43;;;;;;;;;;5031716;28;20422;-49
2022/03/28 13:35:17;;;;;;;25.20;19.50;;;;;;;;;;5032035;28;20414;-49
2022/03/28 13:37:53;;;;;;;27.77;20.27;;;;;;;;;;5031857;28;20410;-50
2022/03/28 13:40:19;;;;;;;31.20;21.60;;;;;;;;;;5031692;28;20453;-49
2022/03/28 13:42:46;;;;;;;28.73;22.00;;;;;;;;;;5031779;28;20907;-51
2022/03/28 13:45:12;;;;;;;28.83;19.73;;;;;;;;;;5030738;28;20816;-49
2022/03/28 13:47:38;;;;;;;27.00;19.37;;;;;;;;;;5031788;28;20532;-49
2022/03/28 13:50:04;;;;;;;29.50;20.10;;;;;;;;;;5031412;28;20568;-50
2022/03/28 13:52:30;;;;;;;33.53;21.67;;;;;;;;;;5031499;28;20811;-50
2022/03/28 13:54:56;;;;;;;30.03;20.90;;;;;;;;;;5031457;28;20407;-51
2022/03/28 13:57:22;;;;;;;29.07;19.13;;;;;;;;;;5030842;28;20501;-50
2022/03/28 13:59:48;;;;;;;34.77;20.53;;;;;;;;;;5030963;28;20524;-51
2022/03/28 14:02:14;;;;;;;32.33;19.50;;;;;;;;;;5030602;28;20452;-48
2022/03/28 14:04:40;;;;;;;29.90;18.30;;;;;;;;;;5031383;28;20422;-48
2022/03/28 14:07:06;;;;;;;28.77;19.07;;;;;;;;;;5031542;28;20826;-48
2022/03/28 14:09:32;;;;;;;28.80;19.90;;;;;;;;;;5030652;28;20414;-52
2022/03/28 14:11:58;;;;;;;26.13;18.67;;;;;;;;;;5031645;28;20426;-52
2022/03/28 14:14:25;;;;;;;24.00;17.67;;;;;;;;;;5031133;28;20549;-52
2022/03/28 14:16:52;;;;;;;25.03;17.83;;;;;;;;;;5031401;28;20771;-51
2022/03/28 14:19:18;;;;;;;24.53;18.73;;;;;;;;;;5031067;28;20440;-50
2022/03/28 14:21:44;;;;;;;22.90;17.77;;;;;;;;;;5030403;28;21022;-50
2022/03/28 14:24:10;;;;;;;31.43;19.17;;;;;;;;;;5038334;28;20438;-51